createdAt,value
2023-03-08T00:02:29.792Z,23.8
2023-03-08T00:07:32.419Z,23.8
2023-03-08T00:12:50.808Z,23.8
2023-03-08T00:18:09.012Z,23.8
2023-03-08T00:23:27.820Z,23.8
2023-03-08T00:28:46.425Z,23.8
2023-03-08T00:34:05.071Z,23.8
2023-03-08T00:39:23.599Z,23.8
2023-03-08T00:44:26.454Z,23.8
2023-03-08T00:49:29.045Z,23.8
2023-03-08T00:54:47.029Z,23.7
2023-03-08T01:00:05.239Z,23.7
2023-03-08T01:05:08.376Z,23.7
2023-03-08T01:10:26.934Z,23.8
2023-03-08T01:15:45.421Z,23.8
2023-03-08T01:21:04.188Z,23.8
2023-03-08T01:26:23.137Z,23.8
2023-03-08T01:31:41.943Z,23.9
2023-03-08T01:37:00.426Z,23.9
2023-03-08T01:42:19.219Z,23.9
2023-03-08T01:47:37.678Z,23.9
2023-03-08T01:52:55.901Z,23.9
2023-03-08T01:58:14.692Z,23.9
2023-03-08T02:03:32.907Z,23.9
2023-03-08T02:08:51.656Z,23.9
2023-03-08T02:14:09.647Z,23.9
2023-03-08T02:19:27.869Z,23.9
2023-03-08T02:24:46.681Z,23.9
2023-03-08T02:30:05.213Z,23.9
2023-03-08T02:35:23.455Z,23.9
2023-03-08T02:40:42.232Z,23.9
2023-03-08T02:46:03.076Z,24
2023-03-08T02:51:21.544Z,24
2023-03-08T02:56:39.762Z,23.9
2023-03-08T03:01:58.310Z,24
2023-03-08T03:07:16.563Z,24
2023-03-08T03:12:34.761Z,24
2023-03-08T03:17:53.616Z,24
2023-03-08T03:23:12.076Z,24
2023-03-08T03:28:30.572Z,24
2023-03-08T03:33:49.098Z,24
2023-03-08T03:39:07.849Z,24
2023-03-08T03:44:10.448Z,24
2023-03-08T03:49:28.706Z,24
2023-03-08T03:54:47.177Z,24
2023-03-08T04:00:05.700Z,24
2023-03-08T04:05:24.211Z,24
2023-03-08T04:10:42.700Z,24
2023-03-08T04:16:01.411Z,24
2023-03-08T04:21:19.949Z,24.1
2023-03-08T04:26:22.700Z,24
2023-03-08T04:31:41.331Z,24.1
2023-03-08T04:36:59.942Z,24.1
2023-03-08T04:42:18.141Z,24.1
2023-03-08T04:47:36.890Z,24.1
2023-03-08T04:52:55.409Z,24.1
2023-03-08T04:58:13.588Z,24.1
2023-03-08T05:03:31.826Z,24.1
2023-03-08T05:08:50.089Z,24.1
2023-03-08T05:14:08.597Z,24.1
2023-03-08T05:19:26.804Z,24
2023-03-08T05:24:45.320Z,24
2023-03-08T05:30:03.216Z,24
2023-03-08T05:35:21.464Z,24
2023-03-08T05:40:39.995Z,24
2023-03-08T05:45:58.594Z,23.6
2023-03-08T05:51:16.928Z,23.5
2023-03-08T05:56:36.074Z,23.6
2023-03-08T06:01:54.348Z,23.6
2023-03-08T06:07:12.945Z,23.6
2023-03-08T06:12:31.505Z,23.7
2023-03-08T06:17:50.151Z,23.7
2023-03-08T06:23:08.375Z,23.7
2023-03-08T06:28:26.633Z,23.7
2023-03-08T06:33:45.201Z,23.7
2023-03-08T06:39:03.717Z,23.8
2023-03-08T06:44:22.301Z,23.8
2023-03-08T06:49:40.768Z,23.8
2023-03-08T06:54:59.361Z,23.9
2023-03-08T07:00:18.155Z,23.9
2023-03-08T07:05:36.347Z,23.9
2023-03-08T07:10:55.230Z,24
2023-03-08T07:16:13.382Z,24
2023-03-08T07:21:32.002Z,24
2023-03-08T07:26:50.102Z,24
2023-03-08T07:32:09.035Z,24
2023-03-08T07:37:27.728Z,24
2023-03-08T07:42:46.229Z,24
2023-03-08T07:48:04.786Z,24
2023-03-08T07:53:23.534Z,24
2023-03-08T07:58:42.132Z,24
2023-03-08T08:04:00.940Z,24
2023-03-08T08:09:03.733Z,24.1
2023-03-08T08:14:22.284Z,24
2023-03-08T08:19:40.805Z,24.1
2023-03-08T08:24:58.801Z,24.1
2023-03-08T08:30:17.596Z,24.1
2023-03-08T08:35:43.781Z,24.1
2023-03-08T08:41:04.660Z,24.2
2023-03-08T08:46:23.006Z,24.3
2023-03-08T08:51:41.494Z,24.3
2023-03-08T08:56:59.757Z,24.4
2023-03-08T09:02:18.746Z,24.4
2023-03-08T09:07:39.543Z,24.4
2023-03-08T09:12:59.311Z,24.4
2023-03-08T09:18:17.629Z,24.4
2023-03-08T09:23:35.783Z,24.4
2023-03-08T09:28:54.316Z,24.3
2023-03-08T09:34:12.258Z,24.3
2023-03-08T09:39:30.512Z,24.3
2023-03-08T09:44:48.758Z,24.4
2023-03-08T09:50:06.947Z,24.4
2023-03-08T09:55:26.744Z,24.5
2023-03-08T10:00:44.820Z,24.5
2023-03-08T10:06:03.239Z,24.6
2023-03-08T10:11:22.826Z,24.6
2023-03-08T10:16:41.391Z,24.6
2023-03-08T10:21:59.689Z,24.7
2023-03-08T10:27:18.198Z,24.7
2023-03-08T10:32:36.981Z,24.7
2023-03-08T10:37:55.489Z,24.8
2023-03-08T10:43:14.301Z,24.8
2023-03-08T10:48:32.474Z,24.7
2023-03-08T10:53:50.956Z,24.7
2023-03-08T10:59:09.569Z,24.7
2023-03-08T11:04:27.837Z,24.7
2023-03-08T11:09:49.036Z,24.7
2023-03-08T11:15:07.826Z,24.7
2023-03-08T11:20:26.096Z,24.7
2023-03-08T11:25:44.606Z,24.7
2023-03-08T11:31:02.649Z,24.7
2023-03-08T11:36:20.790Z,24.7
2023-03-08T11:41:39.526Z,24.7
2023-03-08T11:46:58.002Z,24.7
2023-03-08T11:52:16.390Z,24.7
2023-03-08T11:57:34.834Z,24.7
2023-03-08T12:02:53.468Z,24.7
2023-03-08T12:08:11.978Z,24.7
2023-03-08T12:13:30.312Z,24.7
2023-03-08T12:18:49.114Z,24.7
2023-03-08T12:24:07.375Z,24.7
2023-03-08T12:29:25.447Z,24.7
2023-03-08T12:34:44.039Z,24.6
2023-03-08T12:40:02.476Z,24.6
2023-03-08T12:45:20.988Z,24.6
2023-03-08T12:50:39.494Z,24.6
2023-03-08T12:55:57.727Z,24.6
2023-03-08T13:01:16.055Z,24.6
2023-03-08T13:06:34.581Z,24.6
2023-03-08T13:11:53.156Z,24.6
2023-03-08T13:17:11.834Z,24.6
2023-03-08T13:22:30.178Z,24.5
2023-03-08T13:27:48.423Z,24.5
2023-03-08T13:33:06.637Z,24.5
2023-03-08T13:38:25.448Z,24.5
2023-03-08T13:43:43.640Z,24.5
2023-03-08T13:49:01.878Z,24.5
2023-03-08T13:54:20.708Z,24.5
2023-03-08T13:59:39.251Z,24.5
2023-03-08T14:04:57.882Z,24.5
2023-03-08T14:10:17.923Z,24.5
2023-03-08T14:15:36.938Z,24.5
2023-03-08T14:20:55.754Z,24.5
2023-03-08T14:26:14.179Z,24.4
2023-03-08T14:31:32.667Z,24.4
2023-03-08T14:36:51.203Z,24.4
2023-03-08T14:42:10.725Z,24.4
2023-03-08T14:47:29.197Z,24.4
2023-03-08T14:52:47.560Z,24.4
2023-03-08T14:58:06.301Z,24.4
2023-03-08T15:03:09.144Z,24.4
2023-03-08T15:08:27.639Z,24.4
2023-03-08T15:13:46.736Z,24.4
2023-03-08T15:19:06.333Z,24.4
2023-03-08T15:24:24.782Z,24.4
2023-03-08T15:29:43.165Z,24.4
2023-03-08T15:35:01.406Z,24.3
2023-03-08T15:40:19.610Z,24.4
2023-03-08T15:45:37.915Z,24.4
2023-03-08T15:50:41.720Z,24.3
2023-03-08T15:56:00.238Z,24.3
2023-03-08T16:01:18.477Z,24.3
2023-03-08T16:06:36.682Z,24.3
2023-03-08T16:11:54.584Z,24.3
2023-03-08T16:17:16.699Z,24.4
2023-03-08T16:22:34.779Z,24.4
2023-03-08T16:27:52.711Z,24.4
2023-03-08T16:33:11.010Z,24.4
2023-03-08T16:38:29.186Z,24.4
2023-03-08T16:43:50.922Z,24.3
2023-03-08T16:49:08.863Z,24.3
2023-03-08T16:54:27.428Z,24.3
2023-03-08T16:59:45.997Z,24.3
2023-03-08T17:05:04.775Z,24.3
2023-03-08T17:10:23.562Z,24.3
2023-03-08T17:15:42.097Z,24.3
2023-03-08T17:21:00.443Z,24.3
2023-03-08T17:26:18.937Z,24.3
2023-03-08T17:31:21.824Z,24.3
2023-03-08T17:36:40.641Z,24.3
2023-03-08T17:41:59.232Z,24.2
2023-03-08T17:47:17.986Z,24.1
2023-03-08T17:52:36.598Z,24.1
2023-03-08T17:57:55.424Z,24.2
2023-03-08T18:03:13.602Z,24.2
2023-03-08T18:08:32.480Z,24.2
2023-03-08T18:13:50.708Z,24.2
2023-03-08T18:19:08.902Z,24.2
2023-03-08T18:24:27.462Z,24.2
2023-03-08T18:29:45.676Z,24.2
2023-03-08T18:35:03.876Z,24.2
2023-03-08T18:40:22.805Z,24.2
2023-03-08T18:45:41.540Z,24.2
2023-03-08T18:51:00.098Z,24.2
2023-03-08T18:56:18.752Z,24.3
2023-03-08T19:01:21.053Z,24.2
2023-03-08T19:06:39.549Z,24.2
2023-03-08T19:11:58.085Z,24.2
2023-03-08T19:17:16.646Z,24.2
2023-03-08T19:22:38.051Z,24.2
2023-03-08T19:27:57.829Z,24.2
2023-03-08T19:33:31.713Z,24.2
2023-03-08T19:38:53.212Z,24.2
2023-03-08T19:44:12.154Z,24.2
2023-03-08T19:49:30.485Z,24.2
2023-03-08T19:54:48.399Z,24.2
2023-03-08T20:00:06.726Z,24.2
2023-03-08T20:05:25.302Z,24.2
2023-03-08T20:10:43.791Z,24.2
2023-03-08T20:16:01.954Z,24.2
2023-03-08T20:21:19.889Z,24.1
2023-03-08T20:26:38.663Z,24.1
2023-03-08T20:31:57.537Z,24.1
2023-03-08T20:37:17.145Z,24.1
2023-03-08T20:42:35.310Z,24.1
2023-03-08T20:47:53.266Z,24.1
2023-03-08T20:53:11.722Z,24.1
2023-03-08T20:58:31.474Z,24.1
2023-03-08T21:03:49.963Z,24.1
2023-03-08T21:09:08.634Z,24.1
2023-03-08T21:14:27.125Z,24.1
2023-03-08T21:19:45.631Z,24.1
2023-03-08T21:25:03.807Z,24.1
2023-03-08T21:30:22.287Z,24.1
2023-03-08T21:35:41.030Z,24.1
2023-03-08T21:40:59.366Z,24.1
2023-03-08T21:46:18.020Z,24.1
2023-03-08T21:51:36.238Z,24.1
2023-03-08T21:56:54.699Z,24.1
2023-03-08T22:02:13.392Z,24.1
2023-03-08T22:07:32.075Z,24.1
2023-03-08T22:12:50.260Z,24.1
2023-03-08T22:18:09.196Z,24.1
2023-03-08T22:23:27.707Z,24.1
2023-03-08T22:28:46.364Z,24.1
2023-03-08T22:34:04.832Z,24.1
2023-03-08T22:39:23.016Z,24.1
2023-03-08T22:44:41.316Z,24.1
2023-03-08T22:50:00.153Z,24.1
2023-03-08T22:55:18.950Z,24.1
2023-03-08T23:00:37.399Z,24.1
2023-03-08T23:05:55.321Z,24.1
2023-03-08T23:11:14.364Z,24.1
2023-03-08T23:16:32.838Z,24.1
2023-03-08T23:21:51.322Z,24.1
2023-03-08T23:27:09.576Z,24.1
2023-03-08T23:32:28.048Z,24.1
2023-03-08T23:37:46.233Z,24.2
2023-03-08T23:43:04.712Z,24.2
2023-03-08T23:48:23.357Z,24.2
2023-03-08T23:53:41.843Z,24.2
2023-03-08T23:59:00.399Z,24.3
